Time;durP1;ratioP1;P1;durP2;ratioP2;P2;SDS_P1;SDS_P2;PMS_P1;PMS_P2;Temp;Humidity;BMP_temperature;BMP_pressure;BME280_temperature;BME280_humidity;BME280_pressure;Samples;Min_cycle;Max_cycle;Signal;HPM_P1;HPM_P2
2023/04/25 00:01:49;;;;;;;20.07;8.97;;;5.80;99.90;;;;;;5115969;28;20253;-69
2023/04/25 00:04:15;;;;;;;18.17;9.90;;;5.80;99.90;;;;;;5116280;28;20548;-70
2023/04/25 00:06:41;;;;;;;16.37;9.60;;;5.80;99.90;;;;;;5115920;28;20241;-70
2023/04/25 00:09:08;;;;;;;18.30;10.67;;;5.70;99.90;;;;;;5116014;28;20173;-70
2023/04/25 00:11:34;;;;;;;18.03;9.77;;;5.70;99.90;;;;;;5115893;28;20565;-69
2023/04/25 00:14:02;;;;;;;18.93;10.30;;;5.70;99.90;;;;;;5114428;28;20176;-69
2023/04/25 00:16:29;;;;;;;23.57;11.07;;;5.70;99.90;;;;;;5116027;27;20196;-70
2023/04/25 00:18:55;;;;;;;14.53;9.23;;;5.70;99.90;;;;;;5114467;28;20220;-70
2023/04/25 00:21:22;;;;;;;20.80;10.97;;;5.80;99.90;;;;;;5114474;28;20551;-70
2023/04/25 00:23:47;;;;;;;16.43;8.77;;;5.80;99.90;;;;;;5113618;28;20204;-69
2023/04/25 00:26:13;;;;;;;18.10;9.47;;;5.90;99.90;;;;;;5115431;28;20185;-69
2023/04/25 00:28:40;;;;;;;21.90;10.83;;;5.90;99.90;;;;;;5115761;28;20175;-70
2023/04/25 00:31:05;;;;;;;17.17;9.73;;;5.90;99.90;;;;;;5115427;28;20192;-70
2023/04/25 00:33:31;;;;;;;24.13;10.80;;;5.90;99.90;;;;;;5114080;28;20614;-70
2023/04/25 00:35:57;;;;;;;18.23;10.70;;;5.90;99.90;;;;;;5113921;28;20200;-70
2023/04/25 00:38:23;;;;;;;22.10;10.93;;;5.90;99.90;;;;;;5113802;28;20208;-70
2023/04/25 00:40:48;;;;;;;18.83;10.87;;;6.00;99.90;;;;;;5115776;28;20175;-69
2023/04/25 00:43:14;;;;;;;17.77;11.00;;;5.90;99.90;;;;;;5115248;28;20207;-70
2023/04/25 00:45:41;;;;;;;21.90;11.30;;;5.90;99.90;;;;;;5114205;28;20257;-69
2023/04/25 00:48:07;;;;;;;21.17;11.10;;;6.00;99.90;;;;;;5113719;28;20649;-70
2023/04/25 00:50:36;;;;;;;19.07;11.43;;;6.00;99.90;;;;;;5113891;28;20224;-70
2023/04/25 00:53:03;;;;;;;19.60;10.83;;;6.00;99.90;;;;;;5114850;28;20169;-70
2023/04/25 00:55:31;;;;;;;23.23;11.87;;;6.00;99.90;;;;;;5113608;28;20173;-70
2023/04/25 00:57:57;;;;;;;18.03;11.07;;;6.10;99.90;;;;;;5114882;28;20196;-70
2023/04/25 01:00:23;;;;;;;21.77;11.17;;;6.10;99.90;;;;;;5113509;28;20192;-69
2023/04/25 01:02:49;;;;;;;22.40;12.07;;;6.20;99.90;;;;;;5113399;28;20653;-69
2023/04/25 01:05:15;;;;;;;19.43;11.67;;;6.20;99.90;;;;;;5113242;28;20321;-69
2023/04/25 01:07:41;;;;;;;16.90;11.60;;;6.20;99.90;;;;;;5113018;28;20196;-70
2023/04/25 01:10:07;;;;;;;20.97;11.67;;;6.20;99.90;;;;;;5114688;28;20173;-69
2023/04/25 01:12:33;;;;;;;27.50;13.23;;;6.20;99.90;;;;;;5113280;28;20172;-70
2023/04/25 01:14:59;;;;;;;21.60;12.40;;;6.20;99.90;;;;;;5113188;28;20176;-70
2023/04/25 01:17:25;;;;;;;24.03;12.33;;;6.20;99.90;;;;;;5113004;28;20201;-70
2023/04/25 01:19:51;;;;;;;22.67;14.33;;;6.30;99.90;;;;;;5114216;28;20175;-69
2023/04/25 01:22:17;;;;;;;20.17;12.60;;;6.20;99.90;;;;;;5112990;28;20256;-69
2023/04/25 01:24:43;;;;;;;22.53;14.17;;;6.20;99.90;;;;;;5114350;28;20192;-69
2023/04/25 01:27:10;;;;;;;21.23;13.77;;;6.20;99.90;;;;;;5113130;28;20192;-70
2023/04/25 01:29:36;;;;;;;19.97;13.17;;;6.20;99.90;;;;;;5113033;28;20179;-70
2023/04/25 01:32:03;;;;;;;22.10;13.40;;;6.20;99.90;;;;;;5113070;28;20218;-70
2023/04/25 01:34:29;;;;;;;22.80;12.60;;;6.20;99.90;;;;;;5113364;28;20188;-70
2023/04/25 01:36:55;;;;;;;16.90;12.57;;;6.20;99.90;;;;;;5112694;28;20192;-68
2023/04/25 01:39:21;;;;;;;26.77;13.27;;;6.20;99.90;;;;;;5114321;28;20164;-69
2023/04/25 01:41:48;;;;;;;26.10;14.50;;;6.10;99.90;;;;;;5114401;28;20169;-69
2023/04/25 01:44:14;;;;;;;21.40;12.93;;;6.10;99.90;;;;;;5114430;28;20196;-69
2023/04/25 01:46:40;;;;;;;18.57;13.27;;;6.20;99.90;;;;;;5113856;28;20720;-69
2023/04/25 01:49:06;;;;;;;25.20;13.73;;;6.20;99.90;;;;;;5112607;28;20263;-69
2023/04/25 01:51:32;;;;;;;24.57;12.60;;;6.20;99.90;;;;;;5114002;28;20172;-70
2023/04/25 01:53:58;;;;;;;21.87;14.43;;;6.10;99.90;;;;;;5112587;28;20653;-70
2023/04/25 01:56:24;;;;;;;27.87;15.00;;;6.00;99.90;;;;;;5113796;28;20196;-69
2023/04/25 01:58:51;;;;;;;33.60;15.27;;;6.00;99.90;;;;;;5112472;28;20183;-69
2023/04/25 02:01:17;;;;;;;20.77;14.30;;;6.00;99.90;;;;;;5112440;28;20210;-69
2023/04/25 02:03:43;;;;;;;22.50;14.03;;;6.00;99.90;;;;;;5113892;28;20173;-69
2023/04/25 02:06:09;;;;;;;26.97;15.13;;;5.90;99.90;;;;;;5113769;28;20254;-70
2023/04/25 02:08:37;;;;;;;26.90;15.33;;;5.90;99.90;;;;;;5113755;28;20207;-69
2023/04/25 02:11:03;;;;;;;24.83;15.80;;;5.90;99.90;;;;;;5113893;28;20629;-69
2023/04/25 02:13:28;;;;;;;24.40;15.10;;;5.80;99.90;;;;;;5112363;28;20181;-69
2023/04/25 02:15:54;;;;;;;28.90;17.67;;;5.80;99.90;;;;;;5112363;28;20199;-70
2023/04/25 02:18:20;;;;;;;25.63;16.17;;;5.70;99.90;;;;;;5113699;28;20176;-70
2023/04/25 02:20:47;;;;;;;30.07;16.60;;;5.70;99.90;;;;;;5114036;28;20153;-70
2023/04/25 02:23:15;;;;;;;32.10;18.47;;;5.70;99.90;;;;;;5112157;28;20621;-69
2023/04/25 02:25:41;;;;;;;32.70;18.10;;;5.60;99.90;;;;;;5113870;28;20287;-69
2023/04/25 02:28:06;;;;;;;36.57;19.43;;;5.60;99.90;;;;;;5113710;28;20226;-69
2023/04/25 02:30:32;;;;;;;35.47;18.60;;;5.60;99.90;;;;;;5113537;28;20173;-69
2023/04/25 02:32:58;;;;;;;37.17;20.23;;;5.60;99.90;;;;;;5113614;28;20233;-70
2023/04/25 02:35:24;;;;;;;35.03;19.20;;;5.50;99.90;;;;;;5113394;28;20219;-70
2023/04/25 02:37:50;;;;;;;34.60;18.63;;;5.50;99.90;;;;;;5114116;28;20652;-71
2023/04/25 02:40:16;;;;;;;31.23;18.37;;;5.50;99.90;;;;;;5112789;28;20210;-69
2023/04/25 02:42:41;;;;;;;38.67;19.17;;;5.50;99.90;;;;;;5114094;28;20226;-70
2023/04/25 02:45:08;;;;;;;28.67;18.83;;;5.50;99.90;;;;;;5113537;28;20210;-70
2023/04/25 02:47:33;;;;;;;33.20;18.43;;;5.50;99.90;;;;;;5117342;28;20219;-71
2023/04/25 02:49:59;;;;;;;30.70;18.87;;;5.50;99.90;;;;;;5117473;28;20173;-72
2023/04/25 02:52:25;;;;;;;35.83;19.40;;;5.50;99.90;;;;;;5115726;28;20184;-71
2023/04/25 02:54:51;;;;;;;35.67;19.57;;;5.50;99.90;;;;;;5115823;28;20233;-71
2023/04/25 02:57:16;;;;;;;37.47;20.83;;;5.60;99.90;;;;;;5117038;28;20192;-71
2023/04/25 02:59:42;;;;;;;36.67;20.60;;;5.60;99.90;;;;;;5117562;28;20180;-70
2023/04/25 03:02:08;;;;;;;38.60;20.27;;;5.60;99.90;;;;;;5116996;27;20207;-71
2023/04/25 03:04:33;;;;;;;34.37;19.50;;;5.60;99.90;;;;;;5116906;27;20291;-70
2023/04/25 03:06:59;;;;;;;35.50;20.70;;;5.60;99.90;;;;;;5115363;28;20287;-71
2023/04/25 03:09:25;;;;;;;35.37;21.03;;;5.60;99.90;;;;;;5116800;28;20177;-71
2023/04/25 03:11:51;;;;;;;40.23;20.63;;;5.60;99.90;;;;;;5116790;28;20539;-71
2023/04/25 03:14:16;;;;;;;43.00;21.87;;;5.60;99.90;;;;;;5116893;28;20229;-71
2023/04/25 03:16:42;;;;;;;41.50;21.40;;;5.60;99.90;;;;;;5116987;28;20217;-71
2023/04/25 03:19:08;;;;;;;42.67;22.37;;;5.60;99.90;;;;;;5118056;28;20625;-70
2023/04/25 03:21:35;;;;;;;40.47;22.77;;;5.60;99.90;;;;;;5116666;28;20173;-69
2023/04/25 03:24:02;;;;;;;40.00;21.90;;;5.60;99.90;;;;;;5115197;28;20211;-70
2023/04/25 03:26:28;;;;;;;42.97;23.10;;;5.60;99.90;;;;;;5115482;28;20226;-70
2023/04/25 03:28:54;;;;;;;34.17;21.00;;;5.70;99.90;;;;;;5115706;28;20671;-69
2023/04/25 03:31:20;;;;;;;38.07;22.63;;;5.60;99.90;;;;;;5119888;28;20177;-69
2023/04/25 03:33:46;;;;;;;40.67;23.17;;;5.60;99.90;;;;;;5119076;28;20178;-70
2023/04/25 03:36:11;;;;;;;38.83;22.13;;;5.60;99.90;;;;;;5117904;28;20201;-70
2023/04/25 03:38:37;;;;;;;39.23;20.63;;;5.60;99.90;;;;;;5118517;27;20179;-69
2023/04/25 03:41:03;;;;;;;35.03;21.37;;;5.70;99.90;;;;;;5117088;28;20157;-70
2023/04/25 03:43:29;;;;;;;42.47;21.33;;;5.70;99.90;;;;;;5116457;28;20160;-69
2023/04/25 03:45:55;;;;;;;37.27;20.87;;;5.60;99.90;;;;;;5114802;28;20192;-70
2023/04/25 03:48:25;;;;;;;35.43;19.13;;;5.60;99.90;;;;;;5114829;28;20176;-70
2023/04/25 03:50:52;;;;;;;37.20;19.47;;;5.70;99.90;;;;;;5116096;28;20149;-69
2023/04/25 03:53:18;;;;;;;39.83;19.67;;;5.70;99.90;;;;;;5116019;28;20230;-69
2023/04/25 03:55:44;;;;;;;35.20;19.50;;;5.70;99.90;;;;;;5115903;27;20192;-69
2023/04/25 03:58:09;;;;;;;32.37;19.23;;;5.80;99.90;;;;;;5115014;28;20534;-69
2023/04/25 04:00:36;;;;;;;32.60;18.97;;;5.70;99.90;;;;;;5115191;28;20192;-70
2023/04/25 04:03:02;;;;;;;30.17;18.53;;;5.80;99.90;;;;;;5114657;28;20192;-69
2023/04/25 04:05:28;;;;;;;30.10;17.80;;;5.70;99.90;;;;;;5114253;28;20282;-69
2023/04/25 04:07:55;;;;;;;35.93;17.80;;;5.70;99.90;;;;;;5115589;28;20161;-69
2023/04/25 04:10:20;;;;;;;34.40;18.80;;;5.70;99.90;;;;;;5115848;28;20175;-70
2023/04/25 04:12:46;;;;;;;27.17;17.30;;;5.70;99.90;;;;;;5114708;28;20172;-69
2023/04/25 04:15:12;;;;;;;25.13;15.30;;;5.70;99.90;;;;;;5114537;28;20249;-69
2023/04/25 04:17:38;;;;;;;30.53;16.47;;;5.70;99.90;;;;;;5114553;28;20253;-69
2023/04/25 04:20:05;;;;;;;31.33;16.50;;;5.70;99.90;;;;;;5115755;28;20253;-69
2023/04/25 04:22:31;;;;;;;25.17;14.60;;;5.70;99.90;;;;;;5114306;28;20648;-69
2023/04/25 04:24:57;;;;;;;29.50;16.17;;;5.70;99.90;;;;;;5114010;28;20210;-69
2023/04/25 04:27:23;;;;;;;28.37;14.30;;;5.70;99.90;;;;;;5114125;28;20611;-69
2023/04/25 04:29:51;;;;;;;27.00;15.23;;;5.70;99.90;;;;;;5113943;28;20701;-69
2023/04/25 04:32:17;;;;;;;29.30;15.07;;;5.70;99.90;;;;;;5113817;28;20173;-69
2023/04/25 04:34:43;;;;;;;26.30;14.43;;;5.80;99.90;;;;;;5115249;28;20198;-73
2023/04/25 04:37:09;;;;;;;24.87;13.97;;;5.80;99.90;;;;;;5113673;28;20203;-70
2023/04/25 04:39:35;;;;;;;28.37;14.67;;;5.80;99.90;;;;;;5115785;28;20180;-69
2023/04/25 04:42:03;;;;;;;22.93;14.03;;;5.80;99.90;;;;;;5115082;28;20179;-69
2023/04/25 04:44:29;;;;;;;17.50;11.40;;;5.80;99.90;;;;;;5114819;28;20561;-69
2023/04/25 04:46:55;;;;;;;20.67;10.33;;;5.60;99.90;;;;;;5115013;28;20195;-69
2023/04/25 04:49:21;;;;;;;15.93;9.73;;;5.40;99.90;;;;;;5114961;28;20161;-70
2023/04/25 04:51:47;;;;;;;22.13;10.23;;;5.20;99.90;;;;;;5113671;28;20253;-69
2023/04/25 04:54:13;;;;;;;12.73;8.10;;;5.10;99.90;;;;;;5114762;28;20163;-69
2023/04/25 04:56:39;;;;;;;13.90;8.73;;;5.00;99.90;;;;;;5115134;28;20192;-69
2023/04/25 04:59:05;;;;;;;14.67;8.60;;;5.00;99.90;;;;;;5113622;28;20180;-69
2023/04/25 05:01:30;;;;;;;12.90;7.77;;;5.00;99.90;;;;;;5114783;28;20196;-69
2023/04/25 05:04:00;;;;;;;16.00;8.57;;;5.00;99.90;;;;;;5115042;28;20204;-69
2023/04/25 05:06:28;;;;;;;18.87;9.07;;;5.00;99.90;;;;;;5114856;28;20200;-70
2023/04/25 05:08:54;;;;;;;18.07;8.87;;;5.00;99.90;;;;;;5112871;28;20187;-69
2023/04/25 05:11:21;;;;;;;12.40;8.93;;;5.10;99.90;;;;;;5114554;28;20196;-69
2023/04/25 05:13:47;;;;;;;17.50;8.67;;;5.10;99.90;;;;;;5114267;28;20667;-69
2023/04/25 05:16:13;;;;;;;17.80;8.07;;;5.00;99.90;;;;;;5114788;28;20649;-70
2023/04/25 05:18:39;;;;;;;18.20;7.50;;;5.00;99.90;;;;;;5114289;28;20168;-70
2023/04/25 05:21:05;;;;;;;15.77;7.17;;;5.00;99.90;;;;;;5112841;28;20263;-70
2023/04/25 05:23:32;;;;;;;15.50;8.00;;;5.10;99.90;;;;;;5112803;28;20310;-70
2023/04/25 05:25:59;;;;;;;13.73;7.83;;;5.10;99.90;;;;;;5114261;28;20292;-70
2023/04/25 05:28:24;;;;;;;18.73;8.17;;;5.10;99.90;;;;;;5112786;28;20180;-70
2023/04/25 05:30:50;;;;;;;17.43;7.80;;;5.10;99.90;;;;;;5112830;28;20267;-69
2023/04/25 05:33:16;;;;;;;13.33;8.17;;;5.00;99.90;;;;;;5114339;28;20203;-69
2023/04/25 05:35:42;;;;;;;12.67;7.23;;;5.00;99.90;;;;;;5113842;28;20204;-70
2023/04/25 05:38:08;;;;;;;12.73;7.93;;;5.10;99.90;;;;;;5113913;28;20183;-69
2023/04/25 05:40:34;;;;;;;12.57;8.10;;;5.10;99.90;;;;;;5112669;28;20195;-69
2023/04/25 05:43:00;;;;;;;15.33;8.30;;;5.20;99.90;;;;;;5112671;28;20260;-69
2023/04/25 05:45:25;;;;;;;17.90;8.60;;;5.20;99.90;;;;;;5113699;28;20283;-69
2023/04/25 05:47:51;;;;;;;14.57;7.90;;;5.30;99.90;;;;;;5112564;28;20189;-69
2023/04/25 05:50:17;;;;;;;11.23;7.53;;;5.40;99.90;;;;;;5113817;28;20251;-69
2023/04/25 05:52:43;;;;;;;17.73;8.33;;;5.40;99.90;;;;;;5113904;28;20153;-69
2023/04/25 05:55:09;;;;;;;12.07;8.00;;;5.50;99.90;;;;;;5112492;28;20545;-69
2023/04/25 05:57:35;;;;;;;15.50;8.30;;;5.40;99.90;;;;;;5112389;28;20241;-68
2023/04/25 06:00:01;;;;;;;13.40;8.07;;;5.40;99.90;;;;;;5113836;28;20699;-69
2023/04/25 06:02:27;;;;;;;19.10;8.13;;;5.40;99.90;;;;;;5114094;28;20284;-69
2023/04/25 06:04:52;;;;;;;11.73;7.73;;;5.40;99.90;;;;;;5112519;28;20703;-69
2023/04/25 06:07:20;;;;;;;19.30;7.70;;;5.40;99.90;;;;;;5114188;28;20189;-69
2023/04/25 06:09:45;;;;;;;20.90;8.73;;;5.50;99.90;;;;;;5112667;28;20175;-69
2023/04/25 06:12:11;;;;;;;24.50;8.93;;;5.60;99.90;;;;;;5113594;28;20169;-69
2023/04/25 06:14:37;;;;;;;15.47;8.77;;;5.60;99.90;;;;;;5112277;28;20522;-69
2023/04/25 06:17:08;;;;;;;17.53;9.40;;;5.80;99.90;;;;;;5113589;28;20201;-69
2023/04/25 06:19:35;;;;;;;20.77;8.87;;;5.90;99.90;;;;;;5114320;28;20609;-68
2023/04/25 06:22:01;;;;;;;14.43;8.83;;;6.00;99.90;;;;;;5117240;28;20199;-70
2023/04/25 06:24:29;;;;;;;17.93;9.90;;;6.00;99.90;;;;;;5118872;28;20219;-70
2023/04/25 06:26:55;;;;;;;16.17;9.57;;;6.00;99.90;;;;;;5118125;28;20275;-69
2023/04/25 06:29:21;;;;;;;18.33;8.80;;;6.00;99.90;;;;;;5117037;28;20207;-68
2023/04/25 06:31:47;;;;;;;20.83;9.40;;;6.00;99.90;;;;;;5117518;28;20651;-69
2023/04/25 06:34:12;;;;;;;18.53;9.53;;;6.10;99.90;;;;;;5117337;28;20211;-69
2023/04/25 06:36:38;;;;;;;22.13;8.83;;;6.10;99.90;;;;;;5117178;28;20192;-69
2023/04/25 06:39:04;;;;;;;17.87;9.53;;;6.20;99.90;;;;;;5117300;28;20238;-69
2023/04/25 06:41:30;;;;;;;21.30;10.20;;;6.40;99.90;;;;;;5115939;28;20196;-68
2023/04/25 06:43:56;;;;;;;19.47;9.67;;;6.30;99.90;;;;;;5115817;28;20208;-68
2023/04/25 06:46:21;;;;;;;20.43;9.37;;;6.20;99.90;;;;;;5115782;28;20664;-68
2023/04/25 06:48:47;;;;;;;15.10;9.30;;;6.30;99.90;;;;;;5117118;28;20173;-69
2023/04/25 06:51:13;;;;;;;20.13;9.90;;;6.40;99.90;;;;;;5117072;28;20202;-68
2023/04/25 06:53:39;;;;;;;23.37;10.10;;;6.50;99.90;;;;;;5116940;28;20179;-68
2023/04/25 06:56:06;;;;;;;18.97;9.70;;;6.40;99.90;;;;;;5115634;28;20192;-69
2023/04/25 06:58:31;;;;;;;23.23;9.13;;;6.50;99.90;;;;;;5116932;28;20230;-69
2023/04/25 07:00:57;;;;;;;20.23;9.27;;;6.50;99.90;;;;;;5115543;28;20192;-69
2023/04/25 07:03:23;;;;;;;18.40;9.03;;;6.50;99.90;;;;;;5115574;28;20245;-69
2023/04/25 07:05:50;;;;;;;26.60;10.30;;;6.60;99.90;;;;;;5116592;28;20242;-69
2023/04/25 07:08:16;;;;;;;23.93;10.10;;;6.70;99.90;;;;;;5115175;28;20168;-69
2023/04/25 07:10:42;;;;;;;21.27;9.97;;;6.80;99.90;;;;;;5116992;28;20175;-68
2023/04/25 07:13:08;;;;;;;25.80;9.97;;;6.90;99.90;;;;;;5116806;28;20622;-68
2023/04/25 07:15:34;;;;;;;18.20;10.10;;;7.00;99.90;;;;;;5116724;28;20164;-69
2023/04/25 07:18:00;;;;;;;25.97;10.77;;;7.10;99.90;;;;;;5116494;28;20173;-68
2023/04/25 07:20:27;;;;;;;21.43;9.73;;;7.10;99.90;;;;;;5116528;28;20236;-69
2023/04/25 07:22:53;;;;;;;27.97;10.20;;;7.10;99.90;;;;;;5115133;28;20172;-69
2023/04/25 07:25:19;;;;;;;18.73;8.87;;;7.20;99.90;;;;;;5116551;28;20695;-69
2023/04/25 07:27:45;;;;;;;19.07;9.10;;;7.40;99.90;;;;;;5116269;28;20267;-69
2023/04/25 07:30:12;;;;;;;20.33;8.03;;;7.50;99.90;;;;;;5116564;28;20168;-69
2023/04/25 07:32:38;;;;;;;24.43;8.23;;;7.50;99.90;;;;;;5116503;28;20171;-69
2023/04/25 07:35:04;;;;;;;16.27;7.80;;;7.60;99.90;;;;;;5116243;28;20176;-69
2023/04/25 07:37:30;;;;;;;17.17;7.23;;;7.60;99.90;;;;;;5116106;28;20246;-69
2023/04/25 07:39:56;;;;;;;17.33;8.23;;;7.70;99.90;;;;;;5116286;28;20177;-69
2023/04/25 07:42:21;;;;;;;15.47;7.93;;;7.60;99.90;;;;;;5114784;28;20612;-69
2023/04/25 07:44:47;;;;;;;13.20;7.20;;;7.70;99.90;;;;;;5116027;28;20200;-69
2023/04/25 07:47:13;;;;;;;19.60;7.57;;;7.90;99.90;;;;;;5115917;28;20181;-69
2023/04/25 07:49:39;;;;;;;18.80;7.43;;;8.00;99.90;;;;;;5114735;28;20660;-69
2023/04/25 07:52:05;;;;;;;20.37;8.40;;;8.10;99.90;;;;;;5116173;28;20191;-69
2023/04/25 07:54:32;;;;;;;17.00;7.17;;;8.10;99.90;;;;;;5114495;28;20648;-69
2023/04/25 07:56:58;;;;;;;20.67;7.63;;;8.00;99.90;;;;;;5115658;28;20209;-69
2023/04/25 07:59:24;;;;;;;15.70;6.70;;;7.90;99.90;;;;;;5114533;28;20188;-69
2023/04/25 08:01:50;;;;;;;16.40;7.10;;;7.80;99.90;;;;;;5115875;28;20184;-70
2023/04/25 08:04:16;;;;;;;11.60;7.20;;;7.80;99.90;;;;;;5114358;28;20200;-69
2023/04/25 08:06:43;;;;;;;14.20;7.40;;;7.70;99.90;;;;;;5115670;27;20188;-69
2023/04/25 08:09:09;;;;;;;18.50;8.43;;;7.60;99.90;;;;;;5115619;28;20188;-69
2023/04/25 08:11:35;;;;;;;19.27;8.17;;;7.50;99.90;;;;;;5115556;28;20175;-69
2023/04/25 08:14:01;;;;;;;14.87;7.97;;;7.50;99.90;;;;;;5115818;28;20534;-69
2023/04/25 08:16:27;;;;;;;19.23;8.37;;;7.50;99.90;;;;;;5115708;28;20204;-69
2023/04/25 08:18:53;;;;;;;17.00;8.57;;;7.60;99.90;;;;;;5115426;28;20175;-69
2023/04/25 08:21:20;;;;;;;19.23;7.70;;;7.70;99.90;;;;;;5114122;28;20272;-69
2023/04/25 08:23:46;;;;;;;14.30;7.57;;;8.10;99.90;;;;;;5115143;28;20641;-71
2023/04/25 08:26:11;;;;;;;11.50;7.60;;;8.30;99.90;;;;;;5115330;28;20199;-71
2023/04/25 08:28:37;;;;;;;13.40;6.80;;;8.40;99.90;;;;;;5114007;28;20217;-70
2023/04/25 08:31:03;;;;;;;14.67;7.00;;;8.30;99.90;;;;;;5115221;28;20173;-70
2023/04/25 08:33:29;;;;;;;16.80;6.80;;;8.10;99.90;;;;;;5114155;28;20211;-69
2023/04/25 08:35:56;;;;;;;16.07;6.90;;;8.10;99.90;;;;;;5113688;28;20212;-70
2023/04/25 08:38:21;;;;;;;13.40;7.00;;;8.20;99.90;;;;;;5114954;28;20188;-69
2023/04/25 08:40:51;;;;;;;14.83;6.77;;;8.30;99.90;;;;;;5113765;28;20184;-76
2023/04/25 08:43:19;;;;;;;12.50;6.37;;;8.70;99.90;;;;;;5113627;28;20176;-69
2023/04/25 08:45:45;;;;;;;17.87;6.63;;;9.00;99.90;;;;;;5113575;28;20580;-68
2023/04/25 08:48:13;;;;;;;15.73;5.97;;;9.60;99.90;;;;;;5113528;28;20603;-69
2023/04/25 08:50:53;;;;;;;14.83;5.83;;;10.10;99.90;;;;;;5113552;28;20180;-69
2023/04/25 08:53:27;;;;;;;13.57;6.20;;;9.80;99.90;;;;;;5113415;28;20266;-69
2023/04/25 08:55:55;;;;;;;17.17;6.20;;;9.50;99.90;;;;;;5114651;28;20200;-68
2023/04/25 08:58:21;;;;;;;18.90;6.23;;;9.50;99.90;;;;;;5114544;28;20169;-69
2023/04/25 09:00:49;;;;;;;12.50;5.90;;;9.00;99.90;;;;;;5114699;28;20192;-69
2023/04/25 09:03:15;;;;;;;12.73;5.70;;;8.70;99.90;;;;;;5114594;28;20539;-68
2023/04/25 09:05:41;;;;;;;14.10;5.70;;;8.80;99.90;;;;;;5112998;28;20231;-69
2023/04/25 09:08:07;;;;;;;12.70;5.50;;;9.00;99.90;;;;;;5114535;28;20236;-69
2023/04/25 09:10:34;;;;;;;20.43;5.53;;;9.20;99.90;;;;;;5114896;27;20599;-69
2023/04/25 09:13:08;;;;;;;15.93;5.60;;;9.60;99.90;;;;;;5113485;28;20591;-69
2023/04/25 09:15:53;;;;;;;14.27;5.20;;;10.10;99.90;;;;;;5115351;28;20567;-68
2023/04/25 09:18:27;;;;;;;15.53;5.47;;;11.10;99.90;;;;;;5116575;28;20188;-69
2023/04/25 09:20:59;;;;;;;13.53;5.37;;;11.50;99.90;;;;;;5113998;28;20270;-69
2023/04/25 09:23:24;;;;;;;13.30;5.10;;;11.60;99.90;;;;;;5116084;28;20214;-69
2023/04/25 09:25:53;;;;;;;13.97;5.60;;;11.60;99.90;;;;;;5113368;28;20216;-69
2023/04/25 09:28:28;;;;;;;11.03;5.47;;;10.80;99.90;;;;;;5114660;28;20173;-69
2023/04/25 09:30:57;;;;;;;10.70;4.93;;;10.20;99.90;;;;;;5115170;28;20171;-69
2023/04/25 09:33:35;;;;;;;9.90;5.00;;;9.60;99.90;;;;;;5113075;28;20200;-68
2023/04/25 09:36:07;;;;;;;11.17;5.80;;;9.40;99.90;;;;;;5112916;28;20271;-69
2023/04/25 09:38:48;;;;;;;12.27;5.33;;;9.10;99.90;;;;;;5111627;28;20212;-71
2023/04/25 09:41:23;;;;;;;12.57;4.97;;;8.80;99.90;;;;;;5111660;28;20184;-69
2023/04/25 09:43:50;;;;;;;18.23;6.30;;;8.60;99.90;;;;;;5112852;28;20183;-68
2023/04/25 09:46:17;;;;;;;9.37;4.80;;;8.60;99.90;;;;;;5113133;28;20572;-68
2023/04/25 09:48:49;;;;;;;9.40;4.93;;;8.40;99.90;;;;;;5114309;28;20279;-68
2023/04/25 09:51:15;;;;;;;11.40;5.60;;;8.30;99.90;;;;;;5114917;28;20164;-68
2023/04/25 09:53:46;;;;;;;12.97;5.53;;;8.30;99.90;;;;;;5113409;28;20180;-69
2023/04/25 09:56:12;;;;;;;11.43;5.27;;;8.30;99.90;;;;;;5117333;28;20196;-69
2023/04/25 09:58:40;;;;;;;10.77;5.47;;;8.40;99.90;;;;;;5117081;28;20180;-69
2023/04/25 10:01:07;;;;;;;12.17;6.10;;;8.50;99.90;;;;;;5118167;28;20559;-69
2023/04/25 10:03:39;;;;;;;8.47;5.30;;;8.40;99.90;;;;;;5118447;28;20580;-69
2023/04/25 10:06:26;;;;;;;6.97;4.77;;;8.50;99.90;;;;;;5118183;28;20208;-69
2023/04/25 10:08:55;;;;;;;9.10;5.67;;;8.40;99.90;;;;;;5116642;28;20175;-69
2023/04/25 10:11:24;;;;;;;14.17;5.17;;;8.30;99.90;;;;;;5116711;28;20175;-69
2023/04/25 10:13:50;;;;;;;12.03;5.63;;;8.20;99.90;;;;;;5116717;28;20230;-69
2023/04/25 10:16:16;;;;;;;11.27;5.50;;;8.10;99.90;;;;;;5117882;27;20596;-69
2023/04/25 10:18:42;;;;;;;11.50;5.47;;;8.00;99.90;;;;;;5117851;28;20255;-69
2023/04/25 10:21:08;;;;;;;14.47;5.60;;;8.00;99.90;;;;;;5117786;28;20179;-69
2023/04/25 10:23:34;;;;;;;12.97;5.83;;;8.10;99.90;;;;;;5117687;28;20252;-69
2023/04/25 10:26:00;;;;;;;19.20;6.07;;;8.20;99.90;;;;;;5117633;28;20200;-69
2023/04/25 10:28:26;;;;;;;9.30;5.40;;;8.40;99.90;;;;;;5117739;28;20217;-69
2023/04/25 10:31:02;;;;;;;8.73;5.27;;;8.50;99.90;;;;;;5117977;28;20621;-69
2023/04/25 10:33:36;;;;;;;7.47;4.60;;;8.80;99.90;;;;;;5117917;28;20539;-69
2023/04/25 10:36:22;;;;;;;13.80;6.20;;;9.20;99.90;;;;;;5117385;28;20208;-69
2023/04/25 10:38:52;;;;;;;10.53;5.13;;;9.70;99.90;;;;;;5117528;28;20168;-69
2023/04/25 10:41:20;;;;;;;9.37;4.63;;;9.90;99.90;;;;;;5116654;28;20660;-69
2023/04/25 10:43:50;;;;;;;8.83;4.40;;;10.20;99.90;;;;;;5116164;28;20184;-68
2023/04/25 10:46:24;;;;;;;9.17;4.67;;;10.60;99.90;;;;;;5116129;28;20291;-69
2023/04/25 10:48:51;;;;;;;7.20;4.40;;;10.90;99.90;;;;;;5117743;27;20161;-68
2023/04/25 10:51:28;;;;;;;5.33;4.33;;;10.70;99.90;;;;;;5115987;28;20644;-68
2023/04/25 10:53:59;;;;;;;11.23;5.13;;;10.60;99.90;;;;;;5115945;28;20183;-68
2023/04/25 10:56:39;;;;;;;7.47;4.30;;;10.70;99.90;;;;;;5117114;28;20192;-68
2023/04/25 10:59:09;;;;;;;7.30;4.00;;;10.40;99.90;;;;;;5115842;28;20172;-68
2023/04/25 11:01:56;;;;;;;10.63;4.50;;;10.10;99.90;;;;;;5117075;28;20216;-68
2023/04/25 11:04:35;;;;;;;10.90;4.13;;;9.80;99.90;;;;;;5116983;28;20219;-68
2023/04/25 11:07:22;;;;;;;6.43;4.23;;;9.50;99.90;;;;;;5116569;28;20640;-68
2023/04/25 11:09:49;;;;;;;11.43;4.43;;;9.30;99.90;;;;;;5116943;28;20169;-68
2023/04/25 11:12:16;;;;;;;9.20;4.20;;;9.30;99.90;;;;;;5115676;28;20212;-68
2023/04/25 11:14:42;;;;;;;5.30;3.90;;;9.20;99.90;;;;;;5117137;27;20223;-68
2023/04/25 11:17:07;;;;;;;5.63;4.00;;;9.10;99.90;;;;;;5116524;28;20675;-68
2023/04/25 11:19:33;;;;;;;7.80;4.10;;;9.00;99.90;;;;;;5115355;27;20208;-68
2023/04/25 11:22:00;;;;;;;7.60;3.97;;;8.90;99.90;;;;;;5116919;28;20183;-68
2023/04/25 11:24:34;;;;;;;4.43;3.90;;;8.70;99.90;;;;;;5116362;28;20267;-68
2023/04/25 11:27:04;;;;;;;7.40;3.97;;;8.70;99.90;;;;;;5116717;28;20199;-68
2023/04/25 11:29:31;;;;;;;10.20;4.70;;;8.60;99.90;;;;;;5116606;28;20319;-68
2023/04/25 11:32:00;;;;;;;8.47;4.27;;;8.60;99.90;;;;;;5116345;28;20169;-68
2023/04/25 11:34:30;;;;;;;5.10;4.17;;;8.60;99.90;;;;;;5115242;28;20286;-68
2023/04/25 11:36:56;;;;;;;5.10;4.30;;;8.70;99.90;;;;;;5116256;28;20226;-68
2023/04/25 11:39:24;;;;;;;6.67;4.50;;;8.90;99.90;;;;;;5114821;28;20180;-68
2023/04/25 11:41:50;;;;;;;10.00;4.60;;;8.90;99.90;;;;;;5116348;28;20224;-72
2023/04/25 11:44:17;;;;;;;7.70;4.10;;;9.10;99.90;;;;;;5116561;28;20208;-72
2023/04/25 11:46:43;;;;;;;6.47;3.90;;;9.20;99.90;;;;;;5115107;28;20196;-72
2023/04/25 11:49:09;;;;;;;5.20;4.17;;;9.20;99.90;;;;;;5116167;28;20697;-72
2023/04/25 11:51:46;;;;;;;9.83;4.00;;;9.10;99.90;;;;;;5116255;28;20192;-72
2023/04/25 11:54:12;;;;;;;7.23;4.30;;;9.10;99.90;;;;;;5116195;28;20171;-72
2023/04/25 11:56:42;;;;;;;5.93;3.83;;;9.20;99.90;;;;;;5114740;28;20196;-72
2023/04/25 11:59:08;;;;;;;4.87;4.03;;;9.20;99.90;;;;;;5116521;27;20192;-72
2023/04/25 12:01:36;;;;;;;7.67;3.60;;;9.00;99.90;;;;;;5115862;27;20192;-71
2023/04/25 12:04:14;;;;;;;7.80;4.30;;;9.00;99.90;;;;;;5116265;28;20254;-71
2023/04/25 12:06:41;;;;;;;8.70;4.47;;;8.90;99.90;;;;;;5114609;28;20648;-72
2023/04/25 12:09:11;;;;;;;7.93;4.40;;;8.90;99.90;;;;;;5115887;27;20608;-72
2023/04/25 12:11:42;;;;;;;6.37;4.10;;;8.80;99.90;;;;;;5114481;28;20215;-72
2023/04/25 12:14:09;;;;;;;10.30;4.43;;;8.90;99.90;;;;;;5114504;28;20176;-72
2023/04/25 12:16:45;;;;;;;6.23;4.00;;;9.30;99.90;;;;;;5116026;28;20261;-72
2023/04/25 12:19:15;;;;;;;5.40;3.60;;;9.50;99.90;;;;;;5113584;28;20180;-72
2023/04/25 12:21:41;;;;;;;4.20;3.80;;;9.60;99.90;;;;;;5115988;28;20255;-72
2023/04/25 12:24:18;;;;;;;4.70;3.60;;;9.60;99.90;;;;;;5115691;28;20176;-72
2023/04/25 12:27:05;;;;;;;3.50;3.30;;;9.90;99.90;;;;;;5115753;28;20191;-72
2023/04/25 12:29:32;;;;;;;8.97;3.70;;;10.30;99.90;;;;;;5114534;28;20196;-72
2023/04/25 12:31:59;;;;;;;4.57;3.40;;;11.00;99.90;;;;;;5114307;28;20180;-72
2023/04/25 12:34:25;;;;;;;4.50;3.60;;;11.30;99.90;;;;;;5115310;28;20184;-72
2023/04/25 12:36:52;;;;;;;4.90;3.30;;;11.40;99.90;;;;;;5113982;28;20200;-72
2023/04/25 12:39:23;;;;;;;4.73;3.50;;;11.50;99.90;;;;;;5114925;28;20173;-72
2023/04/25 12:41:53;;;;;;;5.70;3.83;;;12.10;99.90;;;;;;5115531;28;20168;-72
2023/04/25 12:44:20;;;;;;;4.57;3.55;;;12.40;99.90;;;;;;5115329;28;20279;-72